Terminal Aerodrome Forecast
Issued by NWS Wichita, KS

Home | Current Version | Previous Version | Text Only | Print | Product List | Glossary On
Versions: 1 2 3 4 5 6 7 8 9 10 11 12 13 14 15 16 17 18 19 20 21
000
FTUS43 KICT 200451 AAC
TAFICT
TAF AMD
KICT 200451Z 2005/2024 10007KT 3SM BR OVC008
      TEMPO 2005/2008 1/2SM FG OVC004
     FM200800 08004KT 1/2SM -DZ FG OVC003
     FM201500 12005KT 1 1/2SM BR OVC003
     FM201800 17009KT P6SM BKN016
     FM202300 19011KT P6SM BKN025=

USA.gov is the U.S. government's official web portal to all federal, state and local government web resources and services.